sensor_id;sensor_type;location;lat;lon;timestamp;temperature;humidity
17170;DHT22;8700;48.222;16.342;2022-08-16T00:02:16;25.30;95.70
17170;DHT22;8700;48.222;16.342;2022-08-16T00:05:37;25.00;96.10
17170;DHT22;8700;48.222;16.342;2022-08-16T00:09:00;24.90;96.50
17170;DHT22;8700;48.222;16.342;2022-08-16T00:12:21;24.90;96.70
17170;DHT22;8700;48.222;16.342;2022-08-16T00:15:45;24.90;96.80
17170;DHT22;8700;48.222;16.342;2022-08-16T00:19:07;24.90;97.10
17170;DHT22;8700;48.222;16.342;2022-08-16T00:22:28;25.00;97.10
17170;DHT22;8700;48.222;16.342;2022-08-16T00:25:51;25.10;97.10
17170;DHT22;8700;48.222;16.342;2022-08-16T00:29:14;25.10;97.20
17170;DHT22;8700;48.222;16.342;2022-08-16T00:32:37;25.30;97.00
17170;DHT22;8700;48.222;16.342;2022-08-16T00:35:58;25.30;97.00
17170;DHT22;8700;48.222;16.342;2022-08-16T00:39:20;25.30;97.30
17170;DHT22;8700;48.222;16.342;2022-08-16T00:42:43;25.40;96.80
17170;DHT22;8700;48.222;16.342;2022-08-16T00:46:11;25.40;96.80
17170;DHT22;8700;48.222;16.342;2022-08-16T00:49:34;25.40;96.90
17170;DHT22;8700;48.222;16.342;2022-08-16T00:52:56;25.50;96.90
17170;DHT22;8700;48.222;16.342;2022-08-16T00:56:25;25.60;96.80
17170;DHT22;8700;48.222;16.342;2022-08-16T00:59:48;25.50;97.10
17170;DHT22;8700;48.222;16.342;2022-08-16T01:03:12;25.50;97.20
17170;DHT22;8700;48.222;16.342;2022-08-16T01:06:36;25.50;97.20
17170;DHT22;8700;48.222;16.342;2022-08-16T01:09:58;25.40;97.50
17170;DHT22;8700;48.222;16.342;2022-08-16T01:13:21;25.20;97.80
17170;DHT22;8700;48.222;16.342;2022-08-16T01:16:45;25.10;99.10
17170;DHT22;8700;48.222;16.342;2022-08-16T01:20:09;25.10;99.90
17170;DHT22;8700;48.222;16.342;2022-08-16T01:23:43;24.70;99.90
17170;DHT22;8700;48.222;16.342;2022-08-16T01:27:08;24.70;99.90
17170;DHT22;8700;48.222;16.342;2022-08-16T01:30:32;24.30;99.90
17170;DHT22;8700;48.222;16.342;2022-08-16T01:33:54;24.20;99.90
17170;DHT22;8700;48.222;16.342;2022-08-16T01:37:16;23.70;99.90
17170;DHT22;8700;48.222;16.342;2022-08-16T01:40:38;23.40;99.90
17170;DHT22;8700;48.222;16.342;2022-08-16T01:44:00;23.40;99.90
17170;DHT22;8700;48.222;16.342;2022-08-16T01:47:22;23.30;99.90
17170;DHT22;8700;48.222;16.342;2022-08-16T01:50:43;23.20;99.90
17170;DHT22;8700;48.222;16.342;2022-08-16T01:54:05;23.10;99.90
17170;DHT22;8700;48.222;16.342;2022-08-16T01:57:28;23.30;99.90
17170;DHT22;8700;48.222;16.342;2022-08-16T02:00:50;23.10;99.90
17170;DHT22;8700;48.222;16.342;2022-08-16T02:04:12;23.10;99.90
17170;DHT22;8700;48.222;16.342;2022-08-16T02:07:34;23.10;99.90
17170;DHT22;8700;48.222;16.342;2022-08-16T02:10:56;23.10;99.90
17170;DHT22;8700;48.222;16.342;2022-08-16T02:14:20;23.00;99.90
17170;DHT22;8700;48.222;16.342;2022-08-16T02:17:43;23.10;99.90
17170;DHT22;8700;48.222;16.342;2022-08-16T02:21:06;23.10;99.90
17170;DHT22;8700;48.222;16.342;2022-08-16T02:24:30;23.30;99.90
17170;DHT22;8700;48.222;16.342;2022-08-16T02:27:52;23.30;99.90
17170;DHT22;8700;48.222;16.342;2022-08-16T02:31:15;23.20;99.90
17170;DHT22;8700;48.222;16.342;2022-08-16T02:34:36;23.30;99.90
17170;DHT22;8700;48.222;16.342;2022-08-16T02:37:58;23.00;99.90
17170;DHT22;8700;48.222;16.342;2022-08-16T02:41:20;23.10;99.90
17170;DHT22;8700;48.222;16.342;2022-08-16T02:44:41;23.10;99.90
17170;DHT22;8700;48.222;16.342;2022-08-16T02:48:04;22.90;99.90
17170;DHT22;8700;48.222;16.342;2022-08-16T02:51:26;22.90;99.90
17170;DHT22;8700;48.222;16.342;2022-08-16T02:54:48;23.00;99.90
17170;DHT22;8700;48.222;16.342;2022-08-16T02:58:09;23.00;99.90
17170;DHT22;8700;48.222;16.342;2022-08-16T03:01:32;23.00;99.90
17170;DHT22;8700;48.222;16.342;2022-08-16T03:04:55;23.10;99.90
17170;DHT22;8700;48.222;16.342;2022-08-16T03:08:17;23.00;99.90
17170;DHT22;8700;48.222;16.342;2022-08-16T03:11:38;23.00;99.90
17170;DHT22;8700;48.222;16.342;2022-08-16T03:14:59;22.90;99.90
17170;DHT22;8700;48.222;16.342;2022-08-16T03:18:21;23.00;99.90
17170;DHT22;8700;48.222;16.342;2022-08-16T03:21:44;22.80;99.90
17170;DHT22;8700;48.222;16.342;2022-08-16T03:25:08;22.80;99.90
17170;DHT22;8700;48.222;16.342;2022-08-16T03:28:30;22.90;99.90
17170;DHT22;8700;48.222;16.342;2022-08-16T03:31:52;22.80;99.90
17170;DHT22;8700;48.222;16.342;2022-08-16T03:35:14;22.80;99.90
17170;DHT22;8700;48.222;16.342;2022-08-16T03:38:37;22.90;99.90
17170;DHT22;8700;48.222;16.342;2022-08-16T03:41:58;22.70;99.90
17170;DHT22;8700;48.222;16.342;2022-08-16T03:45:20;22.60;99.90
17170;DHT22;8700;48.222;16.342;2022-08-16T03:48:44;22.70;99.90
17170;DHT22;8700;48.222;16.342;2022-08-16T03:52:06;22.80;99.90
17170;DHT22;8700;48.222;16.342;2022-08-16T03:55:29;22.90;99.90
17170;DHT22;8700;48.222;16.342;2022-08-16T03:58:50;22.90;99.90
17170;DHT22;8700;48.222;16.342;2022-08-16T04:02:11;22.90;99.90
17170;DHT22;8700;48.222;16.342;2022-08-16T04:05:34;23.00;99.90
17170;DHT22;8700;48.222;16.342;2022-08-16T04:08:56;22.70;99.90
17170;DHT22;8700;48.222;16.342;2022-08-16T04:12:19;22.80;99.90
17170;DHT22;8700;48.222;16.342;2022-08-16T04:15:41;22.90;99.90
17170;DHT22;8700;48.222;16.342;2022-08-16T04:19:02;22.70;99.90
17170;DHT22;8700;48.222;16.342;2022-08-16T04:22:24;22.80;99.90
17170;DHT22;8700;48.222;16.342;2022-08-16T04:25:46;22.80;99.90
17170;DHT22;8700;48.222;16.342;2022-08-16T04:29:08;23.00;99.90
17170;DHT22;8700;48.222;16.342;2022-08-16T04:32:30;23.20;99.90
17170;DHT22;8700;48.222;16.342;2022-08-16T04:35:53;23.20;99.90
17170;DHT22;8700;48.222;16.342;2022-08-16T04:39:16;23.30;99.90
17170;DHT22;8700;48.222;16.342;2022-08-16T04:42:40;23.30;99.90
17170;DHT22;8700;48.222;16.342;2022-08-16T04:46:08;23.50;99.90
17170;DHT22;8700;48.222;16.342;2022-08-16T04:49:35;23.40;99.90
17170;DHT22;8700;48.222;16.342;2022-08-16T04:52:57;23.40;99.90
17170;DHT22;8700;48.222;16.342;2022-08-16T04:56:19;23.50;99.90
17170;DHT22;8700;48.222;16.342;2022-08-16T04:59:41;23.40;99.90
17170;DHT22;8700;48.222;16.342;2022-08-16T05:03:06;23.40;99.90
17170;DHT22;8700;48.222;16.342;2022-08-16T05:06:28;23.40;99.90
17170;DHT22;8700;48.222;16.342;2022-08-16T05:09:50;23.60;99.90
17170;DHT22;8700;48.222;16.342;2022-08-16T05:13:12;23.80;99.90
17170;DHT22;8700;48.222;16.342;2022-08-16T05:16:36;23.90;99.90
17170;DHT22;8700;48.222;16.342;2022-08-16T05:19:59;24.20;99.90
17170;DHT22;8700;48.222;16.342;2022-08-16T05:23:21;24.20;99.90
17170;DHT22;8700;48.222;16.342;2022-08-16T05:26:42;24.20;99.90
17170;DHT22;8700;48.222;16.342;2022-08-16T05:30:05;24.30;99.90
17170;DHT22;8700;48.222;16.342;2022-08-16T05:33:27;24.50;99.90
17170;DHT22;8700;48.222;16.342;2022-08-16T05:36:49;24.80;99.90
17170;DHT22;8700;48.222;16.342;2022-08-16T05:40:13;24.50;99.90
17170;DHT22;8700;48.222;16.342;2022-08-16T05:43:35;24.30;99.90
17170;DHT22;8700;48.222;16.342;2022-08-16T05:46:59;24.70;99.90
17170;DHT22;8700;48.222;16.342;2022-08-16T05:50:21;24.80;99.90
17170;DHT22;8700;48.222;16.342;2022-08-16T05:53:43;25.00;99.90
17170;DHT22;8700;48.222;16.342;2022-08-16T05:57:05;25.10;99.90
17170;DHT22;8700;48.222;16.342;2022-08-16T06:00:26;25.10;99.90
17170;DHT22;8700;48.222;16.342;2022-08-16T06:03:47;24.90;99.90
17170;DHT22;8700;48.222;16.342;2022-08-16T06:07:09;25.10;99.90
17170;DHT22;8700;48.222;16.342;2022-08-16T06:10:32;25.30;99.90
17170;DHT22;8700;48.222;16.342;2022-08-16T06:13:55;25.20;99.90
17170;DHT22;8700;48.222;16.342;2022-08-16T06:17:16;25.30;99.90
17170;DHT22;8700;48.222;16.342;2022-08-16T06:20:38;25.10;99.90
17170;DHT22;8700;48.222;16.342;2022-08-16T06:23:59;25.10;99.90
17170;DHT22;8700;48.222;16.342;2022-08-16T06:27:23;25.10;99.90
17170;DHT22;8700;48.222;16.342;2022-08-16T06:30:45;25.30;99.90
17170;DHT22;8700;48.222;16.342;2022-08-16T06:34:07;25.20;99.90
17170;DHT22;8700;48.222;16.342;2022-08-16T06:37:28;25.00;99.90
17170;DHT22;8700;48.222;16.342;2022-08-16T06:40:50;25.10;99.90
17170;DHT22;8700;48.222;16.342;2022-08-16T06:44:13;25.40;99.90
17170;DHT22;8700;48.222;16.342;2022-08-16T06:47:34;25.70;99.90
17170;DHT22;8700;48.222;16.342;2022-08-16T06:50:55;25.90;99.90
17170;DHT22;8700;48.222;16.342;2022-08-16T06:54:17;25.90;99.90
17170;DHT22;8700;48.222;16.342;2022-08-16T06:57:39;25.90;99.90
17170;DHT22;8700;48.222;16.342;2022-08-16T07:01:03;26.00;99.90
17170;DHT22;8700;48.222;16.342;2022-08-16T07:04:24;26.20;99.90
17170;DHT22;8700;48.222;16.342;2022-08-16T07:07:48;26.40;99.90
17170;DHT22;8700;48.222;16.342;2022-08-16T07:11:11;26.60;99.90
17170;DHT22;8700;48.222;16.342;2022-08-16T07:14:33;26.60;99.90
17170;DHT22;8700;48.222;16.342;2022-08-16T07:17:55;26.50;99.90
17170;DHT22;8700;48.222;16.342;2022-08-16T07:21:19;26.50;99.90
17170;DHT22;8700;48.222;16.342;2022-08-16T07:24:41;26.40;99.90
17170;DHT22;8700;48.222;16.342;2022-08-16T07:28:03;26.70;99.90
17170;DHT22;8700;48.222;16.342;2022-08-16T07:31:25;26.70;99.90
17170;DHT22;8700;48.222;16.342;2022-08-16T07:34:48;26.80;99.90
17170;DHT22;8700;48.222;16.342;2022-08-16T07:38:10;27.00;99.90
17170;DHT22;8700;48.222;16.342;2022-08-16T07:41:32;27.20;99.90
17170;DHT22;8700;48.222;16.342;2022-08-16T07:44:54;27.30;99.30
17170;DHT22;8700;48.222;16.342;2022-08-16T07:48:17;27.30;99.30
17170;DHT22;8700;48.222;16.342;2022-08-16T07:51:39;27.40;98.90
17170;DHT22;8700;48.222;16.342;2022-08-16T07:55:01;27.10;99.10
17170;DHT22;8700;48.222;16.342;2022-08-16T07:58:22;26.80;99.60
17170;DHT22;8700;48.222;16.342;2022-08-16T08:01:44;26.80;99.50
17170;DHT22;8700;48.222;16.342;2022-08-16T08:05:06;27.10;99.40
17170;DHT22;8700;48.222;16.342;2022-08-16T08:08:29;27.20;99.10
17170;DHT22;8700;48.222;16.342;2022-08-16T08:11:51;27.20;99.20
17170;DHT22;8700;48.222;16.342;2022-08-16T08:15:13;27.20;99.20
17170;DHT22;8700;48.222;16.342;2022-08-16T08:18:35;28.20;98.50
17170;DHT22;8700;48.222;16.342;2022-08-16T08:21:56;29.80;97.40
17170;DHT22;8700;48.222;16.342;2022-08-16T08:25:19;30.80;95.30
17170;DHT22;8700;48.222;16.342;2022-08-16T08:28:41;32.40;93.10
17170;DHT22;8700;48.222;16.342;2022-08-16T08:32:03;33.10;91.00
17170;DHT22;8700;48.222;16.342;2022-08-16T08:35:25;33.50;87.30
17170;DHT22;8700;48.222;16.342;2022-08-16T08:38:46;32.90;86.00
17170;DHT22;8700;48.222;16.342;2022-08-16T08:42:11;32.50;86.50
17170;DHT22;8700;48.222;16.342;2022-08-16T08:45:33;33.90;84.10
17170;DHT22;8700;48.222;16.342;2022-08-16T08:48:54;34.80;80.60
17170;DHT22;8700;48.222;16.342;2022-08-16T08:52:17;34.90;77.10
17170;DHT22;8700;48.222;16.342;2022-08-16T08:55:38;34.80;76.30
17170;DHT22;8700;48.222;16.342;2022-08-16T08:59:01;34.90;74.50
17170;DHT22;8700;48.222;16.342;2022-08-16T09:02:23;34.90;73.60
17170;DHT22;8700;48.222;16.342;2022-08-16T09:05:44;34.60;74.00
17170;DHT22;8700;48.222;16.342;2022-08-16T09:09:05;35.00;72.70
17170;DHT22;8700;48.222;16.342;2022-08-16T09:12:28;35.80;70.70
17170;DHT22;8700;48.222;16.342;2022-08-16T09:15:51;35.50;70.00
17170;DHT22;8700;48.222;16.342;2022-08-16T09:19:14;34.90;70.30
17170;DHT22;8700;48.222;16.342;2022-08-16T09:22:35;36.00;69.20
17170;DHT22;8700;48.222;16.342;2022-08-16T09:25:57;36.50;68.10
17170;DHT22;8700;48.222;16.342;2022-08-16T09:29:18;35.80;67.60
17170;DHT22;8700;48.222;16.342;2022-08-16T09:32:41;35.00;68.70
17170;DHT22;8700;48.222;16.342;2022-08-16T09:36:04;35.20;68.90
17170;DHT22;8700;48.222;16.342;2022-08-16T09:39:27;35.50;68.40
17170;DHT22;8700;48.222;16.342;2022-08-16T09:42:49;37.00;66.30
17170;DHT22;8700;48.222;16.342;2022-08-16T09:46:13;38.50;64.50
17170;DHT22;8700;48.222;16.342;2022-08-16T09:49:36;38.90;61.80
17170;DHT22;8700;48.222;16.342;2022-08-16T09:52:57;38.70;60.60
17170;DHT22;8700;48.222;16.342;2022-08-16T09:56:24;38.00;61.00
17170;DHT22;8700;48.222;16.342;2022-08-16T09:59:46;38.70;60.10
17170;DHT22;8700;48.222;16.342;2022-08-16T10:03:07;38.50;59.60
17170;DHT22;8700;48.222;16.342;2022-08-16T10:06:31;38.30;59.70
17170;DHT22;8700;48.222;16.342;2022-08-16T10:09:52;38.10;60.50
17170;DHT22;8700;48.222;16.342;2022-08-16T10:13:14;38.00;60.20
17170;DHT22;8700;48.222;16.342;2022-08-16T10:16:34;39.00;59.00
17170;DHT22;8700;48.222;16.342;2022-08-16T10:19:56;38.70;58.70
17170;DHT22;8700;48.222;16.342;2022-08-16T10:23:20;39.10;58.40
17170;DHT22;8700;48.222;16.342;2022-08-16T10:26:41;39.10;57.60
17170;DHT22;8700;48.222;16.342;2022-08-16T10:30:04;38.70;57.60
17170;DHT22;8700;48.222;16.342;2022-08-16T10:33:27;38.80;57.40
17170;DHT22;8700;48.222;16.342;2022-08-16T10:36:48;37.80;58.40
17170;DHT22;8700;48.222;16.342;2022-08-16T10:40:11;38.50;58.40
17170;DHT22;8700;48.222;16.342;2022-08-16T10:43:34;38.40;58.40
17170;DHT22;8700;48.222;16.342;2022-08-16T10:46:55;39.10;58.30
17170;DHT22;8700;48.222;16.342;2022-08-16T10:50:16;39.50;57.40
17170;DHT22;8700;48.222;16.342;2022-08-16T10:53:38;38.50;57.30
17170;DHT22;8700;48.222;16.342;2022-08-16T10:57:02;37.80;58.50
17170;DHT22;8700;48.222;16.342;2022-08-16T11:00:24;38.60;57.40
17170;DHT22;8700;48.222;16.342;2022-08-16T11:03:45;38.10;57.90
17170;DHT22;8700;48.222;16.342;2022-08-16T11:07:06;37.80;58.00
17170;DHT22;8700;48.222;16.342;2022-08-16T11:10:33;38.60;57.30
17170;DHT22;8700;48.222;16.342;2022-08-16T11:13:56;39.30;56.00
17170;DHT22;8700;48.222;16.342;2022-08-16T11:17:17;39.20;56.50
17170;DHT22;8700;48.222;16.342;2022-08-16T11:20:40;39.20;56.40
17170;DHT22;8700;48.222;16.342;2022-08-16T11:24:03;39.00;57.10
17170;DHT22;8700;48.222;16.342;2022-08-16T11:27:25;38.60;56.50
17170;DHT22;8700;48.222;16.342;2022-08-16T11:30:48;38.40;56.20
17170;DHT22;8700;48.222;16.342;2022-08-16T11:34:09;38.00;56.80
17170;DHT22;8700;48.222;16.342;2022-08-16T11:37:31;38.20;56.80
17170;DHT22;8700;48.222;16.342;2022-08-16T11:40:55;37.90;57.60
17170;DHT22;8700;48.222;16.342;2022-08-16T11:44:18;38.50;57.20
17170;DHT22;8700;48.222;16.342;2022-08-16T11:47:41;38.80;56.30
17170;DHT22;8700;48.222;16.342;2022-08-16T11:51:02;37.30;56.90
17170;DHT22;8700;48.222;16.342;2022-08-16T11:54:24;36.30;58.20
17170;DHT22;8700;48.222;16.342;2022-08-16T11:57:45;35.60;59.40
17170;DHT22;8700;48.222;16.342;2022-08-16T12:01:07;35.70;58.90
17170;DHT22;8700;48.222;16.342;2022-08-16T12:04:29;35.90;59.00
17170;DHT22;8700;48.222;16.342;2022-08-16T12:07:51;35.50;59.30
17170;DHT22;8700;48.222;16.342;2022-08-16T12:11:14;35.70;59.30
17170;DHT22;8700;48.222;16.342;2022-08-16T12:14:35;35.90;59.10
17170;DHT22;8700;48.222;16.342;2022-08-16T12:17:57;35.90;59.00
17170;DHT22;8700;48.222;16.342;2022-08-16T12:21:20;35.50;59.10
17170;DHT22;8700;48.222;16.342;2022-08-16T12:24:42;35.30;59.10
17170;DHT22;8700;48.222;16.342;2022-08-16T12:28:06;34.90;59.40
17170;DHT22;8700;48.222;16.342;2022-08-16T12:31:29;34.80;59.30
17170;DHT22;8700;48.222;16.342;2022-08-16T12:34:50;34.50;59.50
17170;DHT22;8700;48.222;16.342;2022-08-16T12:38:14;34.20;60.00
17170;DHT22;8700;48.222;16.342;2022-08-16T12:41:36;34.20;59.50
17170;DHT22;8700;48.222;16.342;2022-08-16T12:44:58;34.10;60.00
17170;DHT22;8700;48.222;16.342;2022-08-16T12:48:21;34.30;60.80
17170;DHT22;8700;48.222;16.342;2022-08-16T12:52:00;34.30;60.00
17170;DHT22;8700;48.222;16.342;2022-08-16T12:55:24;34.20;60.00
17170;DHT22;8700;48.222;16.342;2022-08-16T12:58:46;33.80;59.50
17170;DHT22;8700;48.222;16.342;2022-08-16T13:02:09;33.60;59.80
17170;DHT22;8700;48.222;16.342;2022-08-16T13:05:31;33.90;59.50
17170;DHT22;8700;48.222;16.342;2022-08-16T13:08:59;34.20;59.60
17170;DHT22;8700;48.222;16.342;2022-08-16T13:12:40;34.10;59.60
17170;DHT22;8700;48.222;16.342;2022-08-16T13:16:03;34.20;59.30
17170;DHT22;8700;48.222;16.342;2022-08-16T13:19:26;34.40;59.10
17170;DHT22;8700;48.222;16.342;2022-08-16T13:22:49;34.50;59.40
17170;DHT22;8700;48.222;16.342;2022-08-16T13:26:12;34.20;59.60
17170;DHT22;8700;48.222;16.342;2022-08-16T13:29:34;33.90;60.80
17170;DHT22;8700;48.222;16.342;2022-08-16T13:32:56;34.40;59.80
17170;DHT22;8700;48.222;16.342;2022-08-16T13:36:17;34.50;59.80
17170;DHT22;8700;48.222;16.342;2022-08-16T13:39:39;34.40;59.80
17170;DHT22;8700;48.222;16.342;2022-08-16T13:43:00;34.00;60.50
17170;DHT22;8700;48.222;16.342;2022-08-16T13:46:23;34.40;60.00
17170;DHT22;8700;48.222;16.342;2022-08-16T13:49:45;34.40;59.80
17170;DHT22;8700;48.222;16.342;2022-08-16T13:53:06;34.40;59.30
17170;DHT22;8700;48.222;16.342;2022-08-16T13:56:29;34.30;59.20
17170;DHT22;8700;48.222;16.342;2022-08-16T13:59:52;34.30;58.50
17170;DHT22;8700;48.222;16.342;2022-08-16T14:03:15;34.30;58.70
17170;DHT22;8700;48.222;16.342;2022-08-16T14:06:36;34.60;58.70
17170;DHT22;8700;48.222;16.342;2022-08-16T14:09:57;34.50;58.30
17170;DHT22;8700;48.222;16.342;2022-08-16T14:13:19;34.40;58.80
17170;DHT22;8700;48.222;16.342;2022-08-16T14:16:40;34.70;58.70
17170;DHT22;8700;48.222;16.342;2022-08-16T14:20:04;34.70;58.70
17170;DHT22;8700;48.222;16.342;2022-08-16T14:23:26;34.80;58.10
17170;DHT22;8700;48.222;16.342;2022-08-16T14:26:48;34.70;57.60
17170;DHT22;8700;48.222;16.342;2022-08-16T14:30:12;34.40;57.80
17170;DHT22;8700;48.222;16.342;2022-08-16T14:33:33;34.70;57.80
17170;DHT22;8700;48.222;16.342;2022-08-16T14:36:56;34.90;57.80
17170;DHT22;8700;48.222;16.342;2022-08-16T14:40:18;34.90;57.40
17170;DHT22;8700;48.222;16.342;2022-08-16T14:43:41;34.80;57.40
17170;DHT22;8700;48.222;16.342;2022-08-16T14:47:04;34.90;57.00
17170;DHT22;8700;48.222;16.342;2022-08-16T14:50:26;34.70;56.90
17170;DHT22;8700;48.222;16.342;2022-08-16T14:53:49;34.40;57.70
17170;DHT22;8700;48.222;16.342;2022-08-16T14:57:11;34.50;57.70
17170;DHT22;8700;48.222;16.342;2022-08-16T15:00:33;34.30;58.40
17170;DHT22;8700;48.222;16.342;2022-08-16T15:03:55;34.50;57.90
17170;DHT22;8700;48.222;16.342;2022-08-16T15:07:18;34.70;57.40
17170;DHT22;8700;48.222;16.342;2022-08-16T15:10:41;34.50;56.80
17170;DHT22;8700;48.222;16.342;2022-08-16T15:14:03;34.00;56.50
17170;DHT22;8700;48.222;16.342;2022-08-16T15:17:24;34.10;56.30
17170;DHT22;8700;48.222;16.342;2022-08-16T15:20:46;34.50;56.80
17170;DHT22;8700;48.222;16.342;2022-08-16T15:24:07;34.30;57.40
17170;DHT22;8700;48.222;16.342;2022-08-16T15:27:31;34.50;56.90
17170;DHT22;8700;48.222;16.342;2022-08-16T15:30:55;34.20;56.70
17170;DHT22;8700;48.222;16.342;2022-08-16T15:34:16;34.10;56.70
17170;DHT22;8700;48.222;16.342;2022-08-16T15:37:37;33.60;56.60
17170;DHT22;8700;48.222;16.342;2022-08-16T15:40:59;33.90;56.20
17170;DHT22;8700;48.222;16.342;2022-08-16T15:44:24;33.80;56.70
17170;DHT22;8700;48.222;16.342;2022-08-16T15:47:45;33.60;56.80
17170;DHT22;8700;48.222;16.342;2022-08-16T15:51:07;33.80;56.60
17170;DHT22;8700;48.222;16.342;2022-08-16T15:54:28;33.40;56.90
17170;DHT22;8700;48.222;16.342;2022-08-16T15:57:50;33.00;56.40
17170;DHT22;8700;48.222;16.342;2022-08-16T16:01:13;32.90;56.30
17170;DHT22;8700;48.222;16.342;2022-08-16T16:04:37;33.10;57.50
17170;DHT22;8700;48.222;16.342;2022-08-16T16:07:59;33.00;58.40
17170;DHT22;8700;48.222;16.342;2022-08-16T16:11:22;33.00;59.10
17170;DHT22;8700;48.222;16.342;2022-08-16T16:14:43;32.50;59.60
17170;DHT22;8700;48.222;16.342;2022-08-16T16:18:06;32.40;59.60
17170;DHT22;8700;48.222;16.342;2022-08-16T16:21:28;32.10;59.70
17170;DHT22;8700;48.222;16.342;2022-08-16T16:24:49;31.90;60.00
17170;DHT22;8700;48.222;16.342;2022-08-16T16:28:12;31.80;60.30
17170;DHT22;8700;48.222;16.342;2022-08-16T16:31:34;31.80;60.30
17170;DHT22;8700;48.222;16.342;2022-08-16T16:34:57;32.00;60.20
17170;DHT22;8700;48.222;16.342;2022-08-16T16:38:19;32.20;60.00
17170;DHT22;8700;48.222;16.342;2022-08-16T16:41:41;31.90;60.30
17170;DHT22;8700;48.222;16.342;2022-08-16T16:45:04;31.40;61.10
17170;DHT22;8700;48.222;16.342;2022-08-16T16:48:25;31.60;61.00
17170;DHT22;8700;48.222;16.342;2022-08-16T16:51:48;31.70;60.90
17170;DHT22;8700;48.222;16.342;2022-08-16T16:55:11;31.80;61.00
17170;DHT22;8700;48.222;16.342;2022-08-16T16:58:32;31.80;61.30
17170;DHT22;8700;48.222;16.342;2022-08-16T17:02:11;31.50;62.10
17170;DHT22;8700;48.222;16.342;2022-08-16T17:05:33;31.00;63.60
17170;DHT22;8700;48.222;16.342;2022-08-16T17:08:56;31.10;63.20
17170;DHT22;8700;48.222;16.342;2022-08-16T17:12:18;31.20;63.30
17170;DHT22;8700;48.222;16.342;2022-08-16T17:15:39;30.90;63.70
17170;DHT22;8700;48.222;16.342;2022-08-16T17:19:01;30.90;63.70
17170;DHT22;8700;48.222;16.342;2022-08-16T17:22:26;31.00;63.50
17170;DHT22;8700;48.222;16.342;2022-08-16T17:25:49;31.10;63.60
17170;DHT22;8700;48.222;16.342;2022-08-16T17:29:11;30.90;63.70
17170;DHT22;8700;48.222;16.342;2022-08-16T17:32:32;30.90;63.90
17170;DHT22;8700;48.222;16.342;2022-08-16T17:35:54;30.80;64.10
17170;DHT22;8700;48.222;16.342;2022-08-16T17:39:15;30.60;64.60
17170;DHT22;8700;48.222;16.342;2022-08-16T17:42:38;30.50;64.70
17170;DHT22;8700;48.222;16.342;2022-08-16T17:46:00;30.40;65.20
17170;DHT22;8700;48.222;16.342;2022-08-16T17:49:23;30.40;65.30
17170;DHT22;8700;48.222;16.342;2022-08-16T17:52:47;30.40;65.40
17170;DHT22;8700;48.222;16.342;2022-08-16T17:56:09;30.30;65.60
17170;DHT22;8700;48.222;16.342;2022-08-16T17:59:33;30.30;65.60
17170;DHT22;8700;48.222;16.342;2022-08-16T18:02:56;30.40;65.60
17170;DHT22;8700;48.222;16.342;2022-08-16T18:06:18;30.50;65.70
17170;DHT22;8700;48.222;16.342;2022-08-16T18:09:41;30.30;65.80
17170;DHT22;8700;48.222;16.342;2022-08-16T18:13:03;30.20;66.10
17170;DHT22;8700;48.222;16.342;2022-08-16T18:16:26;30.00;66.30
17170;DHT22;8700;48.222;16.342;2022-08-16T18:19:47;29.90;66.50
17170;DHT22;8700;48.222;16.342;2022-08-16T18:23:12;29.80;66.80
17170;DHT22;8700;48.222;16.342;2022-08-16T18:26:33;29.60;67.10
17170;DHT22;8700;48.222;16.342;2022-08-16T18:29:55;29.50;67.20
17170;DHT22;8700;48.222;16.342;2022-08-16T18:33:18;29.40;67.70
17170;DHT22;8700;48.222;16.342;2022-08-16T18:36:40;29.30;67.70
17170;DHT22;8700;48.222;16.342;2022-08-16T18:40:02;29.40;67.70
17170;DHT22;8700;48.222;16.342;2022-08-16T18:43:25;29.30;67.80
17170;DHT22;8700;48.222;16.342;2022-08-16T18:46:47;29.10;68.10
17170;DHT22;8700;48.222;16.342;2022-08-16T18:50:10;29.10;68.10
17170;DHT22;8700;48.222;16.342;2022-08-16T18:53:31;29.10;68.20
17170;DHT22;8700;48.222;16.342;2022-08-16T18:56:53;29.00;68.20
17170;DHT22;8700;48.222;16.342;2022-08-16T19:00:18;28.80;68.30
17170;DHT22;8700;48.222;16.342;2022-08-16T19:03:40;28.80;68.60
17170;DHT22;8700;48.222;16.342;2022-08-16T19:07:03;28.70;68.90
17170;DHT22;8700;48.222;16.342;2022-08-16T19:10:24;28.60;69.20
17170;DHT22;8700;48.222;16.342;2022-08-16T19:13:45;28.40;69.40
17170;DHT22;8700;48.222;16.342;2022-08-16T19:17:07;28.40;69.70
17170;DHT22;8700;48.222;16.342;2022-08-16T19:20:30;28.40;70.00
17170;DHT22;8700;48.222;16.342;2022-08-16T19:23:53;28.30;70.10
17170;DHT22;8700;48.222;16.342;2022-08-16T19:27:15;28.20;70.40
17170;DHT22;8700;48.222;16.342;2022-08-16T19:30:36;28.20;70.50
17170;DHT22;8700;48.222;16.342;2022-08-16T19:33:59;28.10;70.70
17170;DHT22;8700;48.222;16.342;2022-08-16T19:37:23;28.00;71.00
17170;DHT22;8700;48.222;16.342;2022-08-16T19:40:46;27.90;71.40
17170;DHT22;8700;48.222;16.342;2022-08-16T19:44:07;27.90;71.40
17170;DHT22;8700;48.222;16.342;2022-08-16T19:47:29;27.80;71.40
17170;DHT22;8700;48.222;16.342;2022-08-16T19:50:51;27.90;71.50
17170;DHT22;8700;48.222;16.342;2022-08-16T19:54:13;27.90;71.40
17170;DHT22;8700;48.222;16.342;2022-08-16T19:57:38;27.90;71.40
17170;DHT22;8700;48.222;16.342;2022-08-16T20:01:00;27.90;71.40
17170;DHT22;8700;48.222;16.342;2022-08-16T20:04:22;27.90;72.00
17170;DHT22;8700;48.222;16.342;2022-08-16T20:07:44;27.70;71.80
17170;DHT22;8700;48.222;16.342;2022-08-16T20:11:08;27.70;72.00
17170;DHT22;8700;48.222;16.342;2022-08-16T20:14:31;27.70;72.00
17170;DHT22;8700;48.222;16.342;2022-08-16T20:17:52;27.70;72.10
17170;DHT22;8700;48.222;16.342;2022-08-16T20:21:15;27.70;72.00
17170;DHT22;8700;48.222;16.342;2022-08-16T20:24:40;27.70;72.40
17170;DHT22;8700;48.222;16.342;2022-08-16T20:28:02;27.70;72.20
17170;DHT22;8700;48.222;16.342;2022-08-16T20:31:26;27.90;72.00
17170;DHT22;8700;48.222;16.342;2022-08-16T20:34:49;27.80;72.00
17170;DHT22;8700;48.222;16.342;2022-08-16T20:38:12;27.90;71.70
17170;DHT22;8700;48.222;16.342;2022-08-16T20:41:33;27.90;71.80
17170;DHT22;8700;48.222;16.342;2022-08-16T20:44:55;27.90;71.70
17170;DHT22;8700;48.222;16.342;2022-08-16T20:48:18;28.00;71.50
17170;DHT22;8700;48.222;16.342;2022-08-16T20:51:39;28.00;71.50
17170;DHT22;8700;48.222;16.342;2022-08-16T20:55:00;27.90;71.70
17170;DHT22;8700;48.222;16.342;2022-08-16T20:58:23;27.80;71.90
17170;DHT22;8700;48.222;16.342;2022-08-16T21:01:44;27.80;71.70
17170;DHT22;8700;48.222;16.342;2022-08-16T21:05:09;27.80;71.70
17170;DHT22;8700;48.222;16.342;2022-08-16T21:08:31;27.70;71.80
17170;DHT22;8700;48.222;16.342;2022-08-16T21:11:55;27.80;81.80
17170;DHT22;8700;48.222;16.342;2022-08-16T21:15:16;27.80;78.30
17170;DHT22;8700;48.222;16.342;2022-08-16T21:18:37;27.70;75.00